sensor_id;sensor_type;location;lat;lon;timestamp;P1;durP1;ratioP1;P2;durP2;ratioP2
46110;SDS011;31849;55.992;37.252;2023-04-03T00:01:55;40.65;;;25.75;;
46110;SDS011;31849;55.992;37.252;2023-04-03T00:06:59;41.00;;;24.23;;
46110;SDS011;31849;55.992;37.252;2023-04-03T00:12:04;30.85;;;23.10;;
46110;SDS011;31849;55.992;37.252;2023-04-03T00:17:07;36.63;;;23.77;;
46110;SDS011;31849;55.992;37.252;2023-04-03T00:22:11;39.58;;;24.63;;
46110;SDS011;31849;55.992;37.252;2023-04-03T00:27:16;39.85;;;26.40;;
46110;SDS011;31849;55.992;37.252;2023-04-03T00:37:23;45.20;;;26.45;;
46110;SDS011;31849;55.992;37.252;2023-04-03T00:42:28;36.55;;;24.10;;
46110;SDS011;31849;55.992;37.252;2023-04-03T00:52:35;44.13;;;26.80;;
46110;SDS011;31849;55.992;37.252;2023-04-03T00:57:42;45.13;;;27.75;;
46110;SDS011;31849;55.992;37.252;2023-04-03T01:02:47;47.55;;;27.15;;
46110;SDS011;31849;55.992;37.252;2023-04-03T01:07:51;39.70;;;25.50;;
46110;SDS011;31849;55.992;37.252;2023-04-03T01:12:57;37.40;;;23.65;;
46110;SDS011;31849;55.992;37.252;2023-04-03T01:18:03;39.25;;;22.13;;
46110;SDS011;31849;55.992;37.252;2023-04-03T01:23:11;38.58;;;22.60;;
46110;SDS011;31849;55.992;37.252;2023-04-03T01:28:27;36.20;;;23.73;;
46110;SDS011;31849;55.992;37.252;2023-04-03T01:33:34;38.13;;;21.88;;
46110;SDS011;31849;55.992;37.252;2023-04-03T01:38:38;35.30;;;22.15;;
46110;SDS011;31849;55.992;37.252;2023-04-03T01:43:42;33.17;;;20.95;;
46110;SDS011;31849;55.992;37.252;2023-04-03T01:48:48;34.55;;;21.23;;
46110;SDS011;31849;55.992;37.252;2023-04-03T01:53:51;30.33;;;20.17;;
46110;SDS011;31849;55.992;37.252;2023-04-03T01:58:55;32.58;;;21.35;;
46110;SDS011;31849;55.992;37.252;2023-04-03T02:04:00;31.08;;;20.13;;
46110;SDS011;31849;55.992;37.252;2023-04-03T02:14:07;27.23;;;18.73;;
46110;SDS011;31849;55.992;37.252;2023-04-03T02:19:32;31.17;;;20.10;;
46110;SDS011;31849;55.992;37.252;2023-04-03T02:29:40;35.10;;;21.48;;
46110;SDS011;31849;55.992;37.252;2023-04-03T02:34:45;35.13;;;21.90;;
46110;SDS011;31849;55.992;37.252;2023-04-03T02:44:52;34.08;;;20.20;;
46110;SDS011;31849;55.992;37.252;2023-04-03T02:49:56;35.60;;;21.02;;
46110;SDS011;31849;55.992;37.252;2023-04-03T03:00:04;30.25;;;19.42;;
46110;SDS011;31849;55.992;37.252;2023-04-03T03:05:10;33.42;;;20.95;;
46110;SDS011;31849;55.992;37.252;2023-04-03T03:10:14;27.67;;;18.95;;
46110;SDS011;31849;55.992;37.252;2023-04-03T03:15:18;33.75;;;20.80;;
46110;SDS011;31849;55.992;37.252;2023-04-03T03:20:23;28.00;;;18.90;;
46110;SDS011;31849;55.992;37.252;2023-04-03T03:30:29;41.42;;;24.75;;
46110;SDS011;31849;55.992;37.252;2023-04-03T03:35:34;39.33;;;25.50;;
46110;SDS011;31849;55.992;37.252;2023-04-03T03:40:38;41.80;;;26.58;;
46110;SDS011;31849;55.992;37.252;2023-04-03T03:45:42;39.42;;;23.83;;
46110;SDS011;31849;55.992;37.252;2023-04-03T03:50:47;38.27;;;24.13;;
46110;SDS011;31849;55.992;37.252;2023-04-03T03:55:51;33.22;;;21.65;;
46110;SDS011;31849;55.992;37.252;2023-04-03T04:00:55;35.72;;;22.98;;
46110;SDS011;31849;55.992;37.252;2023-04-03T04:06:00;33.60;;;22.52;;
46110;SDS011;31849;55.992;37.252;2023-04-03T04:16:07;32.92;;;22.83;;
46110;SDS011;31849;55.992;37.252;2023-04-03T04:21:12;33.15;;;21.90;;
46110;SDS011;31849;55.992;37.252;2023-04-03T04:31:19;30.33;;;19.55;;
46110;SDS011;31849;55.992;37.252;2023-04-03T04:36:24;32.38;;;21.45;;
46110;SDS011;31849;55.992;37.252;2023-04-03T04:41:28;30.30;;;20.70;;
46110;SDS011;31849;55.992;37.252;2023-04-03T04:46:31;24.33;;;17.70;;
46110;SDS011;31849;55.992;37.252;2023-04-03T04:51:36;26.60;;;19.52;;
46110;SDS011;31849;55.992;37.252;2023-04-03T04:56:52;23.45;;;17.73;;
46110;SDS011;31849;55.992;37.252;2023-04-03T05:01:56;24.77;;;16.30;;
46110;SDS011;31849;55.992;37.252;2023-04-03T05:07:01;22.70;;;16.35;;
46110;SDS011;31849;55.992;37.252;2023-04-03T05:17:07;22.35;;;16.58;;
46110;SDS011;31849;55.992;37.252;2023-04-03T05:22:12;25.70;;;15.85;;
46110;SDS011;31849;55.992;37.252;2023-04-03T05:27:16;25.38;;;16.77;;
46110;SDS011;31849;55.992;37.252;2023-04-03T05:32:20;24.08;;;16.08;;
46110;SDS011;31849;55.992;37.252;2023-04-03T05:37:25;25.90;;;16.23;;
46110;SDS011;31849;55.992;37.252;2023-04-03T05:42:29;26.05;;;17.10;;
46110;SDS011;31849;55.992;37.252;2023-04-03T05:47:32;24.92;;;16.83;;
46110;SDS011;31849;55.992;37.252;2023-04-03T05:52:38;24.25;;;17.23;;
46110;SDS011;31849;55.992;37.252;2023-04-03T05:57:45;25.60;;;17.70;;
46110;SDS011;31849;55.992;37.252;2023-04-03T06:02:49;26.40;;;18.17;;
46110;SDS011;31849;55.992;37.252;2023-04-03T06:07:54;30.67;;;18.77;;
46110;SDS011;31849;55.992;37.252;2023-04-03T06:12:58;26.92;;;17.27;;
46110;SDS011;31849;55.992;37.252;2023-04-03T06:18:02;24.27;;;17.27;;
46110;SDS011;31849;55.992;37.252;2023-04-03T06:23:07;28.65;;;18.25;;
46110;SDS011;31849;55.992;37.252;2023-04-03T06:28:12;26.10;;;19.00;;
46110;SDS011;31849;55.992;37.252;2023-04-03T06:33:15;26.98;;;19.05;;
46110;SDS011;31849;55.992;37.252;2023-04-03T06:38:20;28.63;;;18.90;;
46110;SDS011;31849;55.992;37.252;2023-04-03T06:43:24;27.52;;;18.70;;
46110;SDS011;31849;55.992;37.252;2023-04-03T06:48:27;25.73;;;18.90;;
46110;SDS011;31849;55.992;37.252;2023-04-03T06:53:33;25.00;;;17.77;;
46110;SDS011;31849;55.992;37.252;2023-04-03T06:58:36;26.23;;;16.88;;
46110;SDS011;31849;55.992;37.252;2023-04-03T07:03:40;26.87;;;18.57;;
46110;SDS011;31849;55.992;37.252;2023-04-03T07:08:45;25.15;;;17.38;;
46110;SDS011;31849;55.992;37.252;2023-04-03T07:13:49;24.02;;;18.17;;
46110;SDS011;31849;55.992;37.252;2023-04-03T07:18:53;29.52;;;19.02;;
46110;SDS011;31849;55.992;37.252;2023-04-03T07:23:59;29.55;;;18.50;;
46110;SDS011;31849;55.992;37.252;2023-04-03T07:29:02;24.95;;;19.15;;
46110;SDS011;31849;55.992;37.252;2023-04-03T07:34:06;20.53;;;16.03;;
46110;SDS011;31849;55.992;37.252;2023-04-03T07:39:11;27.90;;;18.80;;
46110;SDS011;31849;55.992;37.252;2023-04-03T07:44:14;25.33;;;18.23;;
46110;SDS011;31849;55.992;37.252;2023-04-03T07:49:18;25.60;;;19.97;;
46110;SDS011;31849;55.992;37.252;2023-04-03T07:54:23;23.67;;;19.77;;
46110;SDS011;31849;55.992;37.252;2023-04-03T07:59:26;31.30;;;20.13;;
46110;SDS011;31849;55.992;37.252;2023-04-03T08:04:30;26.53;;;18.30;;
46110;SDS011;31849;55.992;37.252;2023-04-03T08:09:35;25.40;;;18.27;;
46110;SDS011;31849;55.992;37.252;2023-04-03T08:14:38;20.73;;;14.32;;
46110;SDS011;31849;55.992;37.252;2023-04-03T08:19:42;23.90;;;16.80;;
46110;SDS011;31849;55.992;37.252;2023-04-03T08:24:47;29.77;;;16.73;;
46110;SDS011;31849;55.992;37.252;2023-04-03T08:29:59;21.00;;;14.85;;
46110;SDS011;31849;55.992;37.252;2023-04-03T08:35:03;20.55;;;16.40;;
46110;SDS011;31849;55.992;37.252;2023-04-03T08:40:11;24.90;;;16.23;;
46110;SDS011;31849;55.992;37.252;2023-04-03T08:45:19;21.50;;;14.57;;
46110;SDS011;31849;55.992;37.252;2023-04-03T08:50:39;18.30;;;14.43;;
46110;SDS011;31849;55.992;37.252;2023-04-03T08:55:47;18.88;;;13.05;;
46110;SDS011;31849;55.992;37.252;2023-04-03T09:00:54;20.58;;;14.50;;
46110;SDS011;31849;55.992;37.252;2023-04-03T09:06:02;24.33;;;14.02;;
46110;SDS011;31849;55.992;37.252;2023-04-03T09:11:13;22.02;;;14.48;;
46110;SDS011;31849;55.992;37.252;2023-04-03T09:16:32;20.75;;;13.45;;
46110;SDS011;31849;55.992;37.252;2023-04-03T09:21:46;21.05;;;13.32;;
46110;SDS011;31849;55.992;37.252;2023-04-03T09:26:52;24.87;;;12.97;;
46110;SDS011;31849;55.992;37.252;2023-04-03T09:32:02;18.02;;;12.45;;
46110;SDS011;31849;55.992;37.252;2023-04-03T09:37:36;22.73;;;13.82;;
46110;SDS011;31849;55.992;37.252;2023-04-03T09:42:43;18.77;;;11.55;;
46110;SDS011;31849;55.992;37.252;2023-04-03T09:48:04;16.95;;;12.07;;
46110;SDS011;31849;55.992;37.252;2023-04-03T09:53:25;18.85;;;12.43;;
46110;SDS011;31849;55.992;37.252;2023-04-03T09:58:33;21.08;;;13.88;;
46110;SDS011;31849;55.992;37.252;2023-04-03T10:04:02;21.77;;;13.63;;
46110;SDS011;31849;55.992;37.252;2023-04-03T10:09:16;20.42;;;12.45;;
46110;SDS011;31849;55.992;37.252;2023-04-03T10:14:24;19.03;;;12.23;;
46110;SDS011;31849;55.992;37.252;2023-04-03T10:19:34;18.67;;;12.20;;
46110;SDS011;31849;55.992;37.252;2023-04-03T10:24:47;16.90;;;11.55;;
46110;SDS011;31849;55.992;37.252;2023-04-03T10:29:58;24.17;;;12.23;;
46110;SDS011;31849;55.992;37.252;2023-04-03T10:35:08;19.02;;;12.00;;
46110;SDS011;31849;55.992;37.252;2023-04-03T10:40:23;21.92;;;12.15;;
46110;SDS011;31849;55.992;37.252;2023-04-03T10:45:42;18.35;;;11.18;;
46110;SDS011;31849;55.992;37.252;2023-04-03T10:50:57;19.67;;;12.60;;
46110;SDS011;31849;55.992;37.252;2023-04-03T10:56:07;19.20;;;11.65;;
46110;SDS011;31849;55.992;37.252;2023-04-03T11:01:20;18.38;;;11.63;;
46110;SDS011;31849;55.992;37.252;2023-04-03T11:06:32;21.98;;;12.27;;
46110;SDS011;31849;55.992;37.252;2023-04-03T11:11:39;22.52;;;11.52;;
46110;SDS011;31849;55.992;37.252;2023-04-03T11:16:48;21.38;;;12.25;;
46110;SDS011;31849;55.992;37.252;2023-04-03T11:21:57;19.83;;;11.75;;
46110;SDS011;31849;55.992;37.252;2023-04-03T11:27:08;21.20;;;12.45;;
46110;SDS011;31849;55.992;37.252;2023-04-03T11:38:18;17.00;;;10.82;;
46110;SDS011;31849;55.992;37.252;2023-04-03T11:43:26;18.92;;;10.63;;
46110;SDS011;31849;55.992;37.252;2023-04-03T11:59:48;20.58;;;10.85;;
46110;SDS011;31849;55.992;37.252;2023-04-03T12:10:31;15.57;;;10.63;;
46110;SDS011;31849;55.992;37.252;2023-04-03T12:15:46;20.40;;;11.98;;
46110;SDS011;31849;55.992;37.252;2023-04-03T12:21:00;21.43;;;11.83;;
46110;SDS011;31849;55.992;37.252;2023-04-03T12:26:06;22.77;;;13.02;;
46110;SDS011;31849;55.992;37.252;2023-04-03T12:31:31;21.55;;;12.00;;
46110;SDS011;31849;55.992;37.252;2023-04-03T12:36:48;18.77;;;12.57;;
46110;SDS011;31849;55.992;37.252;2023-04-03T12:42:03;17.63;;;12.75;;
46110;SDS011;31849;55.992;37.252;2023-04-03T12:47:25;22.23;;;11.98;;
46110;SDS011;31849;55.992;37.252;2023-04-03T12:52:39;19.90;;;12.05;;
46110;SDS011;31849;55.992;37.252;2023-04-03T12:57:51;19.73;;;10.85;;
46110;SDS011;31849;55.992;37.252;2023-04-03T13:02:55;17.37;;;12.23;;
46110;SDS011;31849;55.992;37.252;2023-04-03T13:08:01;16.90;;;9.80;;
46110;SDS011;31849;55.992;37.252;2023-04-03T13:13:08;17.33;;;11.20;;
46110;SDS011;31849;55.992;37.252;2023-04-03T13:18:27;19.58;;;11.50;;
46110;SDS011;31849;55.992;37.252;2023-04-03T13:23:34;17.05;;;10.50;;
46110;SDS011;31849;55.992;37.252;2023-04-03T13:28:41;15.30;;;10.30;;
46110;SDS011;31849;55.992;37.252;2023-04-03T13:33:52;16.52;;;11.15;;
46110;SDS011;31849;55.992;37.252;2023-04-03T13:39:00;17.05;;;10.50;;
46110;SDS011;31849;55.992;37.252;2023-04-03T13:44:26;14.82;;;9.23;;
46110;SDS011;31849;55.992;37.252;2023-04-03T13:49:33;18.55;;;9.18;;
46110;SDS011;31849;55.992;37.252;2023-04-03T13:54:43;22.90;;;15.07;;
46110;SDS011;31849;55.992;37.252;2023-04-03T13:59:50;15.38;;;9.82;;
46110;SDS011;31849;55.992;37.252;2023-04-03T14:04:55;14.82;;;8.63;;
46110;SDS011;31849;55.992;37.252;2023-04-03T14:10:05;16.88;;;9.88;;
46110;SDS011;31849;55.992;37.252;2023-04-03T14:15:14;15.95;;;8.55;;
46110;SDS011;31849;55.992;37.252;2023-04-03T14:20:22;16.90;;;9.27;;
46110;SDS011;31849;55.992;37.252;2023-04-03T14:25:29;14.75;;;8.40;;
46110;SDS011;31849;55.992;37.252;2023-04-03T14:30:33;10.98;;;8.18;;
46110;SDS011;31849;55.992;37.252;2023-04-03T14:40:42;13.38;;;9.05;;
46110;SDS011;31849;55.992;37.252;2023-04-03T14:45:45;13.23;;;8.35;;
46110;SDS011;31849;55.992;37.252;2023-04-03T14:50:51;15.25;;;9.20;;
46110;SDS011;31849;55.992;37.252;2023-04-03T14:56:11;16.50;;;9.55;;
46110;SDS011;31849;55.992;37.252;2023-04-03T15:01:17;16.50;;;10.13;;
46110;SDS011;31849;55.992;37.252;2023-04-03T15:06:21;17.85;;;10.43;;
46110;SDS011;31849;55.992;37.252;2023-04-03T15:11:26;14.27;;;9.82;;
46110;SDS011;31849;55.992;37.252;2023-04-03T15:16:30;17.48;;;11.05;;
46110;SDS011;31849;55.992;37.252;2023-04-03T15:21:33;17.15;;;10.73;;
46110;SDS011;31849;55.992;37.252;2023-04-03T15:26:39;14.73;;;11.52;;
46110;SDS011;31849;55.992;37.252;2023-04-03T15:31:43;17.38;;;12.07;;
46110;SDS011;31849;55.992;37.252;2023-04-03T15:36:46;19.42;;;12.93;;
46110;SDS011;31849;55.992;37.252;2023-04-03T15:41:51;18.90;;;13.18;;
46110;SDS011;31849;55.992;37.252;2023-04-03T15:46:55;21.42;;;14.27;;
46110;SDS011;31849;55.992;37.252;2023-04-03T15:51:59;20.00;;;15.13;;
46110;SDS011;31849;55.992;37.252;2023-04-03T15:57:04;22.25;;;15.25;;
46110;SDS011;31849;55.992;37.252;2023-04-03T16:02:07;24.85;;;16.17;;
46110;SDS011;31849;55.992;37.252;2023-04-03T16:07:15;19.55;;;15.07;;
46110;SDS011;31849;55.992;37.252;2023-04-03T16:12:20;22.92;;;16.23;;
46110;SDS011;31849;55.992;37.252;2023-04-03T16:17:24;20.13;;;15.38;;
46110;SDS011;31849;55.992;37.252;2023-04-03T16:22:29;23.15;;;16.35;;
46110;SDS011;31849;55.992;37.252;2023-04-03T16:27:34;23.90;;;16.83;;
46110;SDS011;31849;55.992;37.252;2023-04-03T16:32:38;21.67;;;16.45;;
46110;SDS011;31849;55.992;37.252;2023-04-03T16:37:42;20.05;;;14.85;;
46110;SDS011;31849;55.992;37.252;2023-04-03T16:42:47;19.20;;;14.55;;
46110;SDS011;31849;55.992;37.252;2023-04-03T16:47:51;20.92;;;14.85;;
46110;SDS011;31849;55.992;37.252;2023-04-03T16:52:54;18.70;;;13.82;;
46110;SDS011;31849;55.992;37.252;2023-04-03T16:57:59;17.35;;;12.93;;
46110;SDS011;31849;55.992;37.252;2023-04-03T17:03:03;17.08;;;12.02;;
46110;SDS011;31849;55.992;37.252;2023-04-03T17:08:06;15.98;;;11.98;;
46110;SDS011;31849;55.992;37.252;2023-04-03T17:13:18;15.85;;;11.52;;
46110;SDS011;31849;55.992;37.252;2023-04-03T17:18:22;14.15;;;10.85;;
46110;SDS011;31849;55.992;37.252;2023-04-03T17:23:25;14.50;;;10.23;;
46110;SDS011;31849;55.992;37.252;2023-04-03T17:28:32;16.05;;;10.98;;
46110;SDS011;31849;55.992;37.252;2023-04-03T17:33:36;14.55;;;10.90;;
46110;SDS011;31849;55.992;37.252;2023-04-03T17:38:39;16.65;;;11.10;;
46110;SDS011;31849;55.992;37.252;2023-04-03T17:43:44;15.73;;;11.55;;
46110;SDS011;31849;55.992;37.252;2023-04-03T17:48:48;18.65;;;10.95;;
46110;SDS011;31849;55.992;37.252;2023-04-03T17:53:52;16.95;;;12.05;;
46110;SDS011;31849;55.992;37.252;2023-04-03T17:58:57;18.77;;;12.35;;
46110;SDS011;31849;55.992;37.252;2023-04-03T18:04:01;19.20;;;13.18;;
46110;SDS011;31849;55.992;37.252;2023-04-03T18:09:06;19.40;;;13.23;;
46110;SDS011;31849;55.992;37.252;2023-04-03T18:14:13;21.40;;;14.38;;
46110;SDS011;31849;55.992;37.252;2023-04-03T18:19:19;19.88;;;13.35;;
46110;SDS011;31849;55.992;37.252;2023-04-03T18:29:29;21.17;;;13.95;;
46110;SDS011;31849;55.992;37.252;2023-04-03T18:34:35;23.85;;;13.77;;
46110;SDS011;31849;55.992;37.252;2023-04-03T18:39:39;21.25;;;14.75;;
46110;SDS011;31849;55.992;37.252;2023-04-03T18:44:44;19.98;;;13.80;;
46110;SDS011;31849;55.992;37.252;2023-04-03T18:49:50;19.90;;;12.77;;
46110;SDS011;31849;55.992;37.252;2023-04-03T18:54:53;21.17;;;14.63;;
46110;SDS011;31849;55.992;37.252;2023-04-03T18:59:59;22.92;;;14.35;;
46110;SDS011;31849;55.992;37.252;2023-04-03T19:05:02;20.85;;;14.63;;
46110;SDS011;31849;55.992;37.252;2023-04-03T19:10:07;23.85;;;14.77;;
46110;SDS011;31849;55.992;37.252;2023-04-03T19:15:19;21.27;;;15.75;;
46110;SDS011;31849;55.992;37.252;2023-04-03T19:20:25;22.60;;;15.23;;
46110;SDS011;31849;55.992;37.252;2023-04-03T19:25:29;23.73;;;16.00;;
46110;SDS011;31849;55.992;37.252;2023-04-03T19:30:34;23.25;;;15.20;;
46110;SDS011;31849;55.992;37.252;2023-04-03T19:35:40;23.27;;;15.65;;
46110;SDS011;31849;55.992;37.252;2023-04-03T19:40:44;23.50;;;16.00;;
46110;SDS011;31849;55.992;37.252;2023-04-03T19:45:49;22.80;;;14.93;;
46110;SDS011;31849;55.992;37.252;2023-04-03T19:50:54;22.13;;;14.75;;
46110;SDS011;31849;55.992;37.252;2023-04-03T19:55:57;23.75;;;16.27;;
46110;SDS011;31849;55.992;37.252;2023-04-03T20:01:02;25.38;;;16.13;;
46110;SDS011;31849;55.992;37.252;2023-04-03T20:06:07;27.08;;;16.27;;
46110;SDS011;31849;55.992;37.252;2023-04-03T20:11:11;24.67;;;16.10;;
46110;SDS011;31849;55.992;37.252;2023-04-03T20:16:16;27.23;;;17.05;;
46110;SDS011;31849;55.992;37.252;2023-04-03T20:21:26;25.40;;;15.70;;
46110;SDS011;31849;55.992;37.252;2023-04-03T20:26:31;24.95;;;16.05;;
46110;SDS011;31849;55.992;37.252;2023-04-03T20:31:39;26.23;;;16.20;;
46110;SDS011;31849;55.992;37.252;2023-04-03T20:36:43;26.60;;;16.58;;
46110;SDS011;31849;55.992;37.252;2023-04-03T20:41:50;25.08;;;16.25;;
46110;SDS011;31849;55.992;37.252;2023-04-03T20:46:55;28.02;;;18.38;;
46110;SDS011;31849;55.992;37.252;2023-04-03T20:51:59;28.77;;;18.33;;
46110;SDS011;31849;55.992;37.252;2023-04-03T20:57:05;28.10;;;17.58;;
46110;SDS011;31849;55.992;37.252;2023-04-03T21:02:10;25.27;;;17.02;;
46110;SDS011;31849;55.992;37.252;2023-04-03T21:24:09;27.02;;;17.45;;
46110;SDS011;31849;55.992;37.252;2023-04-03T21:29:13;26.27;;;17.33;;
46110;SDS011;31849;55.992;37.252;2023-04-03T21:34:19;25.83;;;17.02;;
46110;SDS011;31849;55.992;37.252;2023-04-03T21:39:24;28.10;;;18.13;;
46110;SDS011;31849;55.992;37.252;2023-04-03T21:44:28;26.52;;;16.67;;
46110;SDS011;31849;55.992;37.252;2023-04-03T21:49:34;26.60;;;17.40;;
46110;SDS011;31849;55.992;37.252;2023-04-03T21:54:37;26.92;;;16.88;;
46110;SDS011;31849;55.992;37.252;2023-04-03T21:59:41;24.65;;;16.73;;
46110;SDS011;31849;55.992;37.252;2023-04-03T22:04:47;25.88;;;16.52;;
46110;SDS011;31849;55.992;37.252;2023-04-03T22:14:54;24.77;;;16.15;;
46110;SDS011;31849;55.992;37.252;2023-04-03T22:19:58;22.08;;;15.48;;
46110;SDS011;31849;55.992;37.252;2023-04-03T22:25:03;23.52;;;15.50;;
46110;SDS011;31849;55.992;37.252;2023-04-03T22:30:08;25.40;;;15.43;;
46110;SDS011;31849;55.992;37.252;2023-04-03T22:35:13;25.92;;;15.60;;
46110;SDS011;31849;55.992;37.252;2023-04-03T22:40:17;26.48;;;16.55;;
46110;SDS011;31849;55.992;37.252;2023-04-03T22:45:21;29.42;;;17.20;;
46110;SDS011;31849;55.992;37.252;2023-04-03T22:50:25;27.80;;;17.05;;
46110;SDS011;31849;55.992;37.252;2023-04-03T22:55:29;29.50;;;18.73;;
46110;SDS011;31849;55.992;37.252;2023-04-03T23:00:33;31.05;;;19.00;;
46110;SDS011;31849;55.992;37.252;2023-04-03T23:05:39;30.58;;;18.58;;
46110;SDS011;31849;55.992;37.252;2023-04-03T23:10:42;26.67;;;16.70;;
46110;SDS011;31849;55.992;37.252;2023-04-03T23:15:51;28.20;;;17.67;;
46110;SDS011;31849;55.992;37.252;2023-04-03T23:20:57;29.80;;;16.75;;
46110;SDS011;31849;55.992;37.252;2023-04-03T23:26:01;29.92;;;17.48;;
46110;SDS011;31849;55.992;37.252;2023-04-03T23:31:04;28.50;;;16.85;;
46110;SDS011;31849;55.992;37.252;2023-04-03T23:36:10;31.98;;;17.23;;
46110;SDS011;31849;55.992;37.252;2023-04-03T23:41:16;28.48;;;16.95;;
46110;SDS011;31849;55.992;37.252;2023-04-03T23:46:20;29.58;;;16.65;;
46110;SDS011;31849;55.992;37.252;2023-04-03T23:51:25;29.50;;;16.38;;
46110;SDS011;31849;55.992;37.252;2023-04-03T23:56:28;34.22;;;17.00;;
